Time;durP1;ratioP1;P1;durP2;ratioP2;P2;SDS_P1;SDS_P2;PMS_P1;PMS_P2;Temp;Humidity;BMP_temperature;BMP_pressure;BME280_temperature;BME280_humidity;BME280_pressure;Samples;Min_cycle;Max_cycle;Signal;HPM_P1;HPM_P2
2022/06/02 00:01:59;;;;;;;4.10;3.53;;;;;;;;;;5052091;28;20906;-59
2022/06/02 00:04:44;;;;;;;5.30;4.10;;;;;;;;;;5052578;28;20383;-59
2022/06/02 00:07:15;;;;;;;4.43;4.00;;;;;;;;;;5051983;28;20823;-58
2022/06/02 00:09:52;;;;;;;4.40;3.55;;;;;;;;;;5051437;28;20499;-57
2022/06/02 00:12:24;;;;;;;5.18;3.80;;;;;;;;;;5069621;28;20486;-57
2022/06/02 00:15:09;;;;;;;4.97;4.13;;;;;;;;;;5051487;28;20376;-60
2022/06/02 00:17:52;;;;;;;4.50;3.92;;;;;;;;;;5050994;28;20383;-59
2022/06/02 00:20:18;;;;;;;4.80;3.90;;;;;;;;;;5051209;28;20389;-59
2022/06/02 00:22:53;;;;;;;4.47;4.07;;;;;;;;;;5050248;28;20406;-60
2022/06/02 00:25:28;;;;;;;4.70;4.22;;;;;;;;;;5067963;28;20380;-60
2022/06/02 00:28:03;;;;;;;4.20;3.90;;;;;;;;;;5049174;28;20423;-59
2022/06/02 00:30:48;;;;;;;6.18;4.32;;;;;;;;;;5053666;28;20388;-60
2022/06/02 00:33:14;;;;;;;4.63;4.15;;;;;;;;;;5054507;28;20379;-59
2022/06/02 00:35:42;;;;;;;4.20;3.80;;;;;;;;;;5054736;28;20887;-61
2022/06/02 00:38:23;;;;;;;4.30;3.90;;;;;;;;;;5055627;28;20383;-59
2022/06/02 00:40:50;;;;;;;4.55;3.90;;;;;;;;;;5055169;28;20387;-58
2022/06/02 00:43:20;;;;;;;5.15;4.10;;;;;;;;;;5053723;28;20384;-59
2022/06/02 00:45:48;;;;;;;4.85;3.80;;;;;;;;;;5053290;28;20408;-59
2022/06/02 00:48:29;;;;;;;4.95;3.90;;;;;;;;;;5071081;28;20368;-59
2022/06/02 00:51:04;;;;;;;4.95;4.13;;;;;;;;;;5054698;28;20408;-57
2022/06/02 00:53:39;;;;;;;4.47;3.88;;;;;;;;;;5051727;28;20727;-55
2022/06/02 00:59:20;;;;;;;4.30;3.90;;;;;;;;;;5069675;28;20433;-60
2022/06/02 01:01:46;;;;;;;4.30;3.90;;;;;;;;;;5069435;28;20434;-60
2022/06/02 01:04:15;;;;;;;6.70;3.90;;;;;;;;;;5051824;28;20383;-59
2022/06/02 01:06:46;;;;;;;6.47;4.68;;;;;;;;;;5051497;28;20412;-59
2022/06/02 01:09:31;;;;;;;4.85;4.38;;;;;;;;;;5069984;28;20790;-59
2022/06/02 01:12:15;;;;;;;8.20;4.60;;;;;;;;;;5056055;28;20380;-59
2022/06/02 01:15:01;;;;;;;4.93;3.90;;;;;;;;;;5056955;28;20379;-59
2022/06/02 01:17:36;;;;;;;6.47;4.35;;;;;;;;;;5040252;28;20391;-59
2022/06/02 01:20:07;;;;;;;5.82;4.47;;;;;;;;;;5055509;28;20392;-58
2022/06/02 01:22:55;;;;;;;4.93;3.97;;;;;;;;;;5072618;28;20462;-59
2022/06/02 01:25:41;;;;;;;6.15;4.45;;;;;;;;;;5055993;28;20517;-58
2022/06/02 01:28:18;;;;;;;5.10;4.60;;;;;;;;;;5054821;28;20480;-59
2022/06/02 01:31:00;;;;;;;4.90;4.30;;;;;;;;;;5054586;28;20522;-59
2022/06/02 01:33:29;;;;;;;5.95;5.38;;;;;;;;;;5055522;28;20785;-59
2022/06/02 01:36:01;;;;;;;5.95;5.45;;;;;;;;;;5054401;28;20760;-59
2022/06/02 01:38:46;;;;;;;5.30;4.80;;;;;;;;;;5054729;28;20380;-58
2022/06/02 01:41:27;;;;;;;6.00;5.22;;;;;;;;;;5055509;28;20386;-59
2022/06/02 01:44:09;;;;;;;5.83;5.07;;;;;;;;;;5055745;28;20494;-57
2022/06/02 01:46:34;;;;;;;5.97;5.38;;;;;;;;;;5055300;28;20687;-58
2022/06/02 01:49:21;;;;;;;5.50;5.00;;;;;;;;;;5057513;28;20783;-59
2022/06/02 01:51:58;;;;;;;5.57;4.85;;;;;;;;;;5055840;28;20543;-59
2022/06/02 01:54:24;;;;;;;6.05;5.18;;;;;;;;;;5074342;28;20371;-57
2022/06/02 01:56:59;;;;;;;5.38;4.68;;;;;;;;;;5073185;28;20391;-57
2022/06/02 01:59:31;;;;;;;6.43;5.82;;;;;;;;;;5072958;28;20464;-57
2022/06/02 02:02:07;;;;;;;6.20;4.95;;;;;;;;;;5070672;28;20625;-59
2022/06/02 02:04:41;;;;;;;5.70;5.20;;;;;;;;;;5054732;28;20380;-59
2022/06/02 02:07:07;;;;;;;5.73;5.13;;;;;;;;;;5055518;28;20402;-57
2022/06/02 02:09:51;;;;;;;6.00;5.40;;;;;;;;;;5055165;28;20391;-59
2022/06/02 02:12:23;;;;;;;5.78;5.20;;;;;;;;;;5054247;28;20796;-59
2022/06/02 02:14:56;;;;;;;6.53;4.80;;;;;;;;;;5052651;28;20798;-60
2022/06/02 02:17:29;;;;;;;5.63;5.13;;;;;;;;;;5051744;28;20383;-59
2022/06/02 02:19:58;;;;;;;5.18;4.72;;;;;;;;;;5049840;28;20788;-59
2022/06/02 02:22:43;;;;;;;5.10;4.60;;;;;;;;;;5051430;28;20861;-57
2022/06/02 02:25:13;;;;;;;6.80;4.72;;;;;;;;;;5051264;28;20622;-59
2022/06/02 02:28:04;;;;;;;5.40;4.90;;;;;;;;;;5069236;28;20395;-59
2022/06/02 02:30:50;;;;;;;5.13;4.63;;;;;;;;;;5070133;28;20401;-59
2022/06/02 02:33:38;;;;;;;5.43;4.80;;;;;;;;;;5035970;28;20453;-59
2022/06/02 02:36:13;;;;;;;6.65;4.53;;;;;;;;;;5055047;28;20400;-57
2022/06/02 02:38:42;;;;;;;5.13;4.68;;;;;;;;;;5055064;28;20411;-59
2022/06/02 02:41:12;;;;;;;5.05;4.65;;;;;;;;;;5054917;28;20384;-59
2022/06/02 02:43:41;;;;;;;5.43;4.93;;;;;;;;;;5057262;28;20780;-58
2022/06/02 02:46:13;;;;;;;4.93;4.53;;;;;;;;;;5057767;28;20462;-60
2022/06/02 02:48:49;;;;;;;5.57;4.72;;;;;;;;;;5056438;28;20471;-58
2022/06/02 02:51:33;;;;;;;5.18;4.68;;;;;;;;;;5055635;28;20586;-60
2022/06/02 02:54:12;;;;;;;6.03;4.60;;;;;;;;;;5055980;28;20373;-60
2022/06/02 02:56:51;;;;;;;5.05;4.55;;;;;;;;;;5054929;28;20380;-59
2022/06/02 02:59:23;;;;;;;4.82;4.32;;;;;;;;;;5071633;28;20482;-59
2022/06/02 03:02:05;;;;;;;5.38;4.88;;;;;;;;;;5057613;28;20439;-58
2022/06/02 03:04:36;;;;;;;5.65;4.50;;;;;;;;;;5074258;28;20390;-59
2022/06/02 03:07:02;;;;;;;5.77;5.20;;;;;;;;;;5092368;28;20426;-60
2022/06/02 03:09:52;;;;;;;5.95;4.85;;;;;;;;;;5072090;28;20394;-59
2022/06/02 03:12:20;;;;;;;5.55;5.05;;;;;;;;;;5070049;28;20384;-59
2022/06/02 03:15:06;;;;;;;5.88;5.30;;;;;;;;;;5089653;28;20754;-59
2022/06/02 03:17:50;;;;;;;5.97;5.28;;;;;;;;;;5071257;28;20378;-61
2022/06/02 03:20:34;;;;;;;6.07;5.47;;;;;;;;;;5069826;28;20397;-59
2022/06/02 03:23:06;;;;;;;5.57;5.07;;;;;;;;;;5070250;28;20390;-60
2022/06/02 03:25:41;;;;;;;5.82;5.20;;;;;;;;;;5072439;28;20812;-57
2022/06/02 03:28:20;;;;;;;5.10;4.65;;;;;;;;;;5073611;28;20459;-59
2022/06/02 03:30:53;;;;;;;6.15;5.55;;;;;;;;;;5072292;28;20805;-59
2022/06/02 03:33:26;;;;;;;7.22;6.07;;;;;;;;;;5070758;28;20636;-59
2022/06/02 03:36:04;;;;;;;6.10;5.60;;;;;;;;;;5071953;28;20489;-60
2022/06/02 03:38:33;;;;;;;6.32;5.57;;;;;;;;;;5072520;28;20392;-59
2022/06/02 03:41:11;;;;;;;7.13;6.32;;;;;;;;;;5090270;28;20394;-59
2022/06/02 03:43:46;;;;;;;7.03;5.88;;;;;;;;;;5071682;28;20390;-59
2022/06/02 03:46:21;;;;;;;7.40;6.65;;;;;;;;;;5072123;28;20773;-59
2022/06/02 03:49:06;;;;;;;9.68;6.80;;;;;;;;;;5072614;28;20378;-58
2022/06/02 03:51:32;;;;;;;7.55;6.75;;;;;;;;;;5073234;28;20550;-59
2022/06/02 03:54:05;;;;;;;7.15;6.47;;;;;;;;;;5091583;28;20385;-59
2022/06/02 03:56:31;;;;;;;8.07;7.27;;;;;;;;;;5074553;28;20459;-58
2022/06/02 03:59:16;;;;;;;7.43;6.50;;;;;;;;;;5093504;28;20394;-58
2022/06/02 04:01:48;;;;;;;9.70;7.30;;;;;;;;;;5074928;28;20571;-59
2022/06/02 04:04:32;;;;;;;7.78;6.95;;;;;;;;;;5073430;28;20786;-60
2022/06/02 04:07:06;;;;;;;8.37;7.33;;;;;;;;;;5090805;28;20829;-58
2022/06/02 04:09:49;;;;;;;8.73;7.70;;;;;;;;;;5073328;28;20377;-59
2022/06/02 04:15:08;;;;;;;10.07;8.57;;;;;;;;;;5086589;28;20801;-57
2022/06/02 04:17:37;;;;;;;8.20;7.40;;;;;;;;;;5066140;28;20561;-58
2022/06/02 04:23:11;;;;;;;10.20;9.20;;;;;;;;;;5085195;28;20740;-58
2022/06/02 04:25:54;;;;;;;10.45;9.45;;;;;;;;;;5067901;28;20412;-58
2022/06/02 04:28:23;;;;;;;9.88;8.90;;;;;;;;;;5070871;28;20390;-59
2022/06/02 04:30:55;;;;;;;9.88;8.80;;;;;;;;;;5089495;28;20511;-57
2022/06/02 04:33:25;;;;;;;8.82;7.70;;;;;;;;;;5073582;28;20677;-59
2022/06/02 04:36:06;;;;;;;9.23;8.25;;;;;;;;;;5072765;28;20374;-58
2022/06/02 04:38:38;;;;;;;9.45;8.35;;;;;;;;;;5071255;28;20670;-58
2022/06/02 04:41:28;;;;;;;9.45;8.13;;;;;;;;;;5071276;28;20416;-59
2022/06/02 04:44:00;;;;;;;9.27;7.95;;;;;;;;;;5040870;28;20621;-59
2022/06/02 04:46:45;;;;;;;8.98;8.07;;;;;;;;;;5073246;28;20488;-58
2022/06/02 04:49:13;;;;;;;9.50;8.60;;;;;;;;;;5072224;28;20375;-58
2022/06/02 04:51:41;;;;;;;9.40;8.48;;;;;;;;;;5074285;28;20378;-59
2022/06/02 04:54:08;;;;;;;9.30;8.40;;;;;;;;;;5091600;28;20405;-59
2022/06/02 04:56:37;;;;;;;10.25;8.50;;;;;;;;;;5072000;28;20386;-57
2022/06/02 04:59:11;;;;;;;9.20;8.25;;;;;;;;;;5071784;28;20687;-59
2022/06/02 05:01:46;;;;;;;11.57;8.43;;;;;;;;;;5067750;28;20442;-58
2022/06/02 05:04:13;;;;;;;11.63;8.63;;;;;;;;;;5068197;28;20386;-59
2022/06/02 05:06:49;;;;;;;8.70;7.80;;;;;;;;;;5051038;28;20403;-58
2022/06/02 05:09:18;;;;;;;9.47;8.47;;;;;;;;;;5048809;28;20486;-56
2022/06/02 05:11:50;;;;;;;9.18;8.30;;;;;;;;;;5066710;28;20465;-59
2022/06/02 05:14:16;;;;;;;8.65;7.85;;;;;;;;;;5048985;28;20581;-59
2022/06/02 05:16:59;;;;;;;8.73;7.68;;;;;;;;;;5049046;28;20384;-58
2022/06/02 05:19:40;;;;;;;9.07;8.10;;;;;;;;;;5049285;28;20387;-57
2022/06/02 05:22:15;;;;;;;9.57;7.28;;;;;;;;;;5048119;28;20802;-55
2022/06/02 05:24:52;;;;;;;11.90;8.45;;;;;;;;;;5047945;28;20372;-58
2022/06/02 05:27:25;;;;;;;8.93;7.82;;;;;;;;;;5067305;28;20418;-59
2022/06/02 05:30:09;;;;;;;8.30;7.50;;;;;;;;;;5049683;28;20392;-54
2022/06/02 05:32:54;;;;;;;8.95;7.22;;;;;;;;;;5050281;28;20380;-58
2022/06/02 05:35:36;;;;;;;7.80;7.00;;;;;;;;;;5049723;28;20376;-57
2022/06/02 05:38:11;;;;;;;8.00;7.03;;;;;;;;;;5067799;28;20496;-59
2022/06/02 05:40:38;;;;;;;7.50;6.80;;;;;;;;;;5068984;28;20382;-59
2022/06/02 05:43:04;;;;;;;7.15;6.55;;;;;;;;;;5052177;28;20433;-59
2022/06/02 05:45:49;;;;;;;8.30;6.75;;;;;;;;;;5069133;28;20703;-59
2022/06/02 05:48:18;;;;;;;9.65;7.25;;;;;;;;;;5051705;28;20376;-57
2022/06/02 05:51:03;;;;;;;6.70;6.10;;;;;;;;;;5051835;28;20391;-57
2022/06/02 05:53:55;;;;;;;6.40;5.80;;;;;;;;;;5051586;28;20655;-58
2022/06/02 05:56:28;;;;;;;7.95;6.30;;;;;;;;;;5007702;28;20387;-55
2022/06/02 05:59:12;;;;;;;8.05;6.32;;;;;;;;;;5044489;28;20415;-59
2022/06/02 06:01:39;;;;;;;8.43;6.63;;;;;;;;;;5041589;28;20428;-58
2022/06/02 06:04:05;;;;;;;6.80;6.10;;;;;;;;;;5039741;28;20388;-59
2022/06/02 06:06:31;;;;;;;7.28;5.72;;;;;;;;;;5039621;28;20465;-56
2022/06/02 06:09:12;;;;;;;6.43;5.82;;;;;;;;;;5040473;28;20376;-58
2022/06/02 06:12:09;;;;;;;6.30;5.45;;;;;;;;;;5060327;28;20375;-57
2022/06/02 06:14:46;;;;;;;6.45;5.10;;;;;;;;;;5041781;28;20384;-58
2022/06/02 06:17:31;;;;;;;5.53;4.97;;;;;;;;;;5043857;28;20384;-59
2022/06/02 06:20:03;;;;;;;5.97;4.70;;;;;;;;;;5047525;28;20466;-57
2022/06/02 06:22:48;;;;;;;5.68;5.05;;;;;;;;;;5066044;28;20410;-57
2022/06/02 06:25:17;;;;;;;6.10;4.88;;;;;;;;;;5048525;28;20495;-58
2022/06/02 06:27:52;;;;;;;6.28;4.70;;;;;;;;;;5050464;28;20711;-59
2022/06/02 06:30:21;;;;;;;7.10;5.10;;;;;;;;;;5049592;28;20637;-55
2022/06/02 06:32:56;;;;;;;7.65;5.07;;;;;;;;;;5065840;28;20474;-55
2022/06/02 06:35:28;;;;;;;6.27;4.40;;;;;;;;;;5048956;28;20376;-59
2022/06/02 06:38:05;;;;;;;5.40;4.65;;;;;;;;;;5049389;28;20577;-59
2022/06/02 06:40:37;;;;;;;6.20;4.60;;;;;;;;;;5049070;28;20387;-58
2022/06/02 06:43:06;;;;;;;7.90;4.80;;;;;;;;;;5050181;28;20949;-58
2022/06/02 06:45:57;;;;;;;6.28;4.28;;;;;;;;;;5048042;28;20528;-57
2022/06/02 06:48:25;;;;;;;5.57;4.07;;;;;;;;;;5047963;28;20680;-55
2022/06/02 06:50:54;;;;;;;5.78;4.63;;;;;;;;;;5048690;28;20719;-58
2022/06/02 06:53:28;;;;;;;4.57;3.75;;;;;;;;;;5047234;28;20706;-58
2022/06/02 06:55:57;;;;;;;5.20;3.83;;;;;;;;;;5047547;28;20538;-59
2022/06/02 06:58:42;;;;;;;4.97;3.63;;;;;;;;;;5045622;28;20893;-57
2022/06/02 07:01:15;;;;;;;4.75;3.70;;;;;;;;;;5044383;28;20444;-55
2022/06/02 07:04:00;;;;;;;4.43;3.27;;;;;;;;;;5042759;28;20521;-59
2022/06/02 07:06:46;;;;;;;4.75;3.58;;;;;;;;;;5041489;28;20404;-57
2022/06/02 07:09:21;;;;;;;4.05;3.65;;;;;;;;;;5042822;28;20380;-57
2022/06/02 07:14:56;;;;;;;8.15;3.80;;;;;;;;;;5060262;28;20426;-56
2022/06/02 07:17:41;;;;;;;4.95;3.58;;;;;;;;;;5041527;28;20415;-56
2022/06/02 07:20:23;;;;;;;5.82;3.67;;;;;;;;;;5043343;28;20387;-58
2022/06/02 07:22:55;;;;;;;5.45;4.13;;;;;;;;;;5044735;28;20406;-61
2022/06/02 07:25:30;;;;;;;5.90;3.20;;;;;;;;;;5043636;28;20549;-58
2022/06/02 07:27:59;;;;;;;5.75;3.50;;;;;;;;;;5059971;28;20496;-57
2022/06/02 07:30:31;;;;;;;5.27;3.70;;;;;;;;;;5043561;28;20394;-56
2022/06/02 07:33:21;;;;;;;4.95;3.80;;;;;;;;;;5062052;28;20380;-58
2022/06/02 07:36:02;;;;;;;5.10;3.70;;;;;;;;;;5043967;28;20664;-57
2022/06/02 07:38:28;;;;;;;5.88;3.50;;;;;;;;;;5043957;28;20795;-59
2022/06/02 07:41:07;;;;;;;4.10;3.60;;;;;;;;;;5043547;28;20467;-58
2022/06/02 07:43:39;;;;;;;9.43;3.90;;;;;;;;;;5041732;28;20490;-56
2022/06/02 07:46:08;;;;;;;5.13;3.80;;;;;;;;;;5057327;28;20766;-59
2022/06/02 07:48:53;;;;;;;6.22;4.00;;;;;;;;;;5039543;28;20657;-58
2022/06/02 07:51:28;;;;;;;4.70;3.30;;;;;;;;;;5039690;28;20388;-59
2022/06/02 07:54:24;;;;;;;5.05;3.38;;;;;;;;;;5040048;28;20380;-58
2022/06/02 07:57:11;;;;;;;4.90;3.20;;;;;;;;;;5028228;28;20876;-59
2022/06/02 07:59:40;;;;;;;5.20;3.25;;;;;;;;;;5042074;28;20392;-58
2022/06/02 08:02:10;;;;;;;5.55;3.67;;;;;;;;;;5049284;28;20414;-57
2022/06/02 08:04:54;;;;;;;3.67;3.20;;;;;;;;;;5080194;28;20386;-56
2022/06/02 08:07:41;;;;;;;5.45;3.70;;;;;;;;;;5067635;28;20720;-59
2022/06/02 08:10:25;;;;;;;4.88;3.80;;;;;;;;;;5065948;28;20382;-58
2022/06/02 08:13:10;;;;;;;7.18;4.10;;;;;;;;;;5064805;28;20404;-59
2022/06/02 08:15:48;;;;;;;5.70;4.13;;;;;;;;;;5084213;28;20508;-58
2022/06/02 08:18:32;;;;;;;5.38;3.50;;;;;;;;;;5067976;28;20403;-56
2022/06/02 08:21:16;;;;;;;6.28;3.80;;;;;;;;;;5084693;28;20792;-65
2022/06/02 08:23:56;;;;;;;7.10;4.13;;;;;;;;;;5086193;28;20492;-65
2022/06/02 08:26:25;;;;;;;6.25;3.60;;;;;;;;;;5086503;28;21098;-58
2022/06/02 08:29:10;;;;;;;5.97;3.60;;;;;;;;;;5067361;28;20477;-55
2022/06/02 08:31:48;;;;;;;5.38;3.38;;;;;;;;;;5083895;28;20619;-62
2022/06/02 08:34:17;;;;;;;5.00;3.45;;;;;;;;;;5067155;28;20584;-57
2022/06/02 08:36:49;;;;;;;6.90;3.83;;;;;;;;;;5067568;28;20663;-56
2022/06/02 08:39:18;;;;;;;5.57;3.60;;;;;;;;;;5087867;28;20678;-55
2022/06/02 08:41:50;;;;;;;4.60;2.88;;;;;;;;;;5071019;28;20378;-59
2022/06/02 08:44:23;;;;;;;7.03;3.08;;;;;;;;;;5071209;28;20604;-58
2022/06/02 08:46:58;;;;;;;4.78;3.00;;;;;;;;;;5071085;28;20821;-59
2022/06/02 08:49:33;;;;;;;5.50;3.00;;;;;;;;;;5069575;28;20465;-57
2022/06/02 08:52:17;;;;;;;6.20;2.60;;;;;;;;;;5069535;28;20382;-58
2022/06/02 08:55:07;;;;;;;6.20;2.60;;;;;;;;;;5089048;28;20811;-58
2022/06/02 08:57:44;;;;;;;6.47;3.13;;;;;;;;;;5069536;28;20498;-59
2022/06/02 09:00:26;;;;;;;5.13;2.63;;;;;;;;;;5071489;28;20828;-58
2022/06/02 09:03:04;;;;;;;3.85;2.22;;;;;;;;;;5071575;28;20441;-59
2022/06/02 09:05:45;;;;;;;4.45;1.92;;;;;;;;;;5087442;28;20410;-55
2022/06/02 09:08:29;;;;;;;4.55;2.33;;;;;;;;;;5087777;28;20375;-56
2022/06/02 09:11:07;;;;;;;4.32;2.33;;;;;;;;;;5070433;28;20376;-58
2022/06/02 09:13:43;;;;;;;3.37;2.13;;;;;;;;;;5087926;28;20462;-57
2022/06/02 09:16:10;;;;;;;4.78;2.30;;;;;;;;;;5087922;28;20389;-58
2022/06/02 09:18:50;;;;;;;6.53;2.35;;;;;;;;;;5086215;28;20374;-59
2022/06/02 09:21:24;;;;;;;4.05;2.08;;;;;;;;;;5086653;28;20378;-59
2022/06/02 09:23:50;;;;;;;6.00;2.10;;;;;;;;;;5068199;28;20374;-55
2022/06/02 09:26:29;;;;;;;5.43;1.80;;;;;;;;;;5068380;28;20398;-58
2022/06/02 09:29:03;;;;;;;4.88;1.77;;;;;;;;;;5069175;28;20421;-57
2022/06/02 09:31:45;;;;;;;4.60;1.95;;;;;;;;;;5070216;28;20417;-59
2022/06/02 09:34:30;;;;;;;7.00;2.00;;;;;;;;;;5073940;28;20389;-59
2022/06/02 09:37:14;;;;;;;4.40;1.90;;;;;;;;;;5073503;28;20400;-59
2022/06/02 09:39:43;;;;;;;5.38;2.28;;;;;;;;;;5071178;28;20421;-59
2022/06/02 09:42:09;;;;;;;4.40;1.67;;;;;;;;;;5087961;28;21023;-58
2022/06/02 09:44:41;;;;;;;4.40;1.85;;;;;;;;;;5068649;28;20851;-59
2022/06/02 09:47:33;;;;;;;8.45;2.25;;;;;;;;;;5080996;28;20496;-54
2022/06/02 09:50:14;;;;;;;6.47;1.95;;;;;;;;;;5063507;28;20382;-57
2022/06/02 09:52:50;;;;;;;6.20;2.10;;;;;;;;;;5064613;28;20371;-58
2022/06/02 09:55:16;;;;;;;4.65;2.10;;;;;;;;;;5065562;28;20391;-56
2022/06/02 09:58:02;;;;;;;5.93;1.80;;;;;;;;;;5066552;28;20394;-57
2022/06/02 10:00:46;;;;;;;4.05;1.70;;;;;;;;;;5064755;28;20681;-57
2022/06/02 10:03:24;;;;;;;5.35;1.73;;;;;;;;;;5067367;28;20421;-58
2022/06/02 10:06:09;;;;;;;3.60;1.88;;;;;;;;;;5067851;28;20413;-57
2022/06/02 10:09:03;;;;;;;3.90;1.75;;;;;;;;;;5068731;28;20401;-59
2022/06/02 10:11:32;;;;;;;3.90;2.08;;;;;;;;;;5051125;28;20374;-55
2022/06/02 10:14:01;;;;;;;5.70;2.05;;;;;;;;;;5070610;28;21101;-55
2022/06/02 10:16:37;;;;;;;6.68;2.13;;;;;;;;;;5072108;28;20382;-71
2022/06/02 10:19:28;;;;;;;30.60;3.78;;;;;;;;;;5089572;28;20484;-71
2022/06/02 10:22:02;;;;;;;22.77;3.33;;;;;;;;;;5071965;28;20881;-73
2022/06/02 10:24:47;;;;;;;10.70;2.07;;;;;;;;;;5073199;28;20425;-72
2022/06/02 10:27:29;;;;;;;13.43;2.67;;;;;;;;;;5072927;28;20414;-71
2022/06/02 10:30:13;;;;;;;11.77;3.00;;;;;;;;;;5072713;28;20547;-71
2022/06/02 10:32:39;;;;;;;4.10;1.90;;;;;;;;;;5072973;28;20447;-71
2022/06/02 10:35:24;;;;;;;4.47;2.10;;;;;;;;;;5072864;28;20390;-72
2022/06/02 10:38:08;;;;;;;6.35;2.40;;;;;;;;;;5088038;28;20385;-71
2022/06/02 10:40:40;;;;;;;3.92;2.00;;;;;;;;;;5069304;28;20867;-71
2022/06/02 10:43:16;;;;;;;5.40;2.35;;;;;;;;;;5066517;28;20398;-71
2022/06/02 10:45:42;;;;;;;8.23;2.40;;;;;;;;;;5066803;28;20386;-71
2022/06/02 10:48:26;;;;;;;4.05;2.00;;;;;;;;;;5068133;28;20405;-71
2022/06/02 10:50:59;;;;;;;5.03;1.92;;;;;;;;;;5068156;28;21026;-70
2022/06/02 10:53:29;;;;;;;5.80;2.20;;;;;;;;;;5068962;28;20378;-70
2022/06/02 10:56:01;;;;;;;7.80;2.33;;;;;;;;;;5068700;28;20901;-71
2022/06/02 10:58:46;;;;;;;8.38;2.13;;;;;;;;;;5068660;28;20405;-60
2022/06/02 11:01:18;;;;;;;101.82;9.15;;;;;;;;;;5069681;28;20382;-58
2022/06/02 11:04:13;;;;;;;10.80;2.40;;;14.30;99.90;;;;;;5088243;28;20396;-62
2022/06/02 11:07:03;;;;;;;7.37;2.30;;;14.50;99.90;;;;;;5068682;28;20496;-64
2022/06/02 11:10:07;;;;;;;7.97;2.28;;;14.30;99.90;;;;;;5066687;28;20382;-62
2022/06/02 11:12:36;;;;;;;5.38;2.17;;;14.20;99.90;;;;;;5067843;28;20382;-63
2022/06/02 11:15:20;;;;;;;13.75;2.40;;;14.20;99.90;;;;;;5066940;28;20417;-63
2022/06/02 11:18:06;;;;;;;57.20;5.70;;;14.20;99.90;;;;;;5067118;28;21030;-65
2022/06/02 11:20:53;;;;;;;85.40;7.70;;;14.30;99.90;;;;;;5082010;28;20409;-74
2022/06/02 11:23:36;;;;;;;6.45;2.40;;;14.40;99.90;;;;;;5063395;28;20386;-69
2022/06/02 11:26:11;;;;;;;13.30;2.90;;;14.50;99.90;;;;;;5065822;28;20828;-70
2022/06/02 11:29:19;;;;;;;12.60;2.50;;;14.50;99.90;;;;;;5064254;28;20382;-66
2022/06/02 11:32:11;;;;;;;9.63;2.13;;;14.50;99.90;;;;;;5062238;28;20397;-70
2022/06/02 11:35:05;;;;;;;7.90;2.17;;;14.60;99.90;;;;;;5061595;28;20414;-70
2022/06/02 11:37:54;;;;;;;5.13;1.77;;;14.60;99.90;;;;;;5062787;28;20662;-67
2022/06/02 11:40:44;;;;;;;152.15;13.10;;;14.70;99.90;;;;;;5062614;28;20386;-70
2022/06/02 11:43:13;;;;;;;7.40;2.10;;;14.70;99.90;;;;;;5078983;28;20394;-70
2022/06/02 11:46:06;;;;;;;3.78;2.00;;;14.70;99.90;;;;;;5062806;28;20485;-70
2022/06/02 11:49:04;;;;;;;9.02;2.15;;;14.70;99.90;;;;;;5064638;28;20383;-69
2022/06/02 11:52:00;;;;;;;8.70;2.75;;;14.60;99.90;;;;;;5062708;28;20669;-69
2022/06/02 11:54:39;;;;;;;13.32;2.67;;;14.60;99.90;;;;;;5065313;28;20374;-63
2022/06/02 11:57:38;;;;;;;6.13;2.10;;;14.60;99.90;;;;;;5084445;28;21162;-63
2022/06/02 12:00:41;;;;;;;11.90;2.20;;;14.60;99.90;;;;;;5085341;28;20451;-63
2022/06/02 12:03:32;;;;;;;4.50;1.95;;;14.70;99.90;;;;;;5066984;28;20410;-71
2022/06/02 12:06:11;;;;;;;70.20;6.47;;;14.50;99.90;;;;;;5065328;28;20404;-69
2022/06/02 12:09:08;;;;;;;5.25;1.80;;;14.40;99.90;;;;;;5066058;28;20477;-71
2022/06/02 12:12:11;;;;;;;5.78;2.05;;;14.70;99.90;;;;;;5065871;28;20378;-70
2022/06/02 12:14:55;;;;;;;4.90;1.83;;;14.90;99.90;;;;;;5086456;28;20412;-67
2022/06/02 12:17:44;;;;;;;7.13;2.00;;;15.20;99.90;;;;;;5064081;28;20386;-69
2022/06/02 12:20:30;;;;;;;5.55;2.00;;;15.70;99.90;;;;;;5064808;28;20374;-69
2022/06/02 12:23:22;;;;;;;6.13;2.00;;;16.10;99.90;;;;;;5065144;28;20475;-70
2022/06/02 12:26:20;;;;;;;6.13;1.92;;;16.20;99.90;;;;;;5069410;28;20390;-69
2022/06/02 12:28:50;;;;;;;5.80;1.85;;;16.40;99.90;;;;;;5064634;28;20973;-69
2022/06/02 12:32:01;;;;;;;6.32;1.92;;;16.10;99.90;;;;;;5083033;28;20390;-70
2022/06/02 12:35:01;;;;;;;4.53;2.13;;;15.80;99.90;;;;;;5027267;28;20413;-70
2022/06/02 12:37:53;;;;;;;6.32;1.90;;;15.60;99.90;;;;;;5064983;28;20438;-70
2022/06/02 12:40:41;;;;;;;12.68;2.08;;;15.50;99.90;;;;;;5064666;28;20809;-71
2022/06/02 12:43:13;;;;;;;6.90;2.07;;;15.40;99.90;;;;;;5065805;28;20898;-69
2022/06/02 12:45:48;;;;;;;3.60;1.80;;;15.40;99.90;;;;;;5065708;28;20396;-69
2022/06/02 12:48:55;;;;;;;5.85;2.03;;;15.80;99.90;;;;;;5068055;28;20384;-68
2022/06/02 12:51:23;;;;;;;5.20;2.10;;;15.80;99.90;;;;;;5068856;28;20412;-69
2022/06/02 12:54:43;;;;;;;4.40;1.97;;;16.00;99.90;;;;;;5070413;28;20654;-70
2022/06/02 12:57:40;;;;;;;7.47;1.88;;;16.10;99.90;;;;;;5088101;28;21066;-70
2022/06/02 13:00:43;;;;;;;6.10;1.90;;;16.00;99.90;;;;;;5068084;28;20416;-70
2022/06/02 13:03:31;;;;;;;5.47;1.95;;;16.10;99.90;;;;;;5068407;28;20464;-63
2022/06/02 13:06:25;;;;;;;4.47;1.80;;;16.60;99.90;;;;;;5069453;28;20401;-61
2022/06/02 13:09:21;;;;;;;7.00;2.17;;;16.50;99.90;;;;;;5070524;28;20496;-65
2022/06/02 13:11:52;;;;;;;4.85;1.98;;;16.30;99.90;;;;;;5088210;28;20381;-65
2022/06/02 13:14:42;;;;;;;3.38;1.63;;;16.00;99.90;;;;;;5089494;28;20386;-62
2022/06/02 13:17:21;;;;;;;5.65;1.88;;;16.00;99.90;;;;;;5090032;28;20374;-62
2022/06/02 13:20:13;;;;;;;5.05;1.70;;;16.00;99.90;;;;;;5071442;28;20429;-62
2022/06/02 13:23:10;;;;;;;4.55;1.80;;;16.30;99.90;;;;;;5072518;28;21016;-63
2022/06/02 13:25:57;;;;;;;4.57;1.75;;;16.70;99.90;;;;;;5071413;28;20422;-63
2022/06/02 13:28:43;;;;;;;5.43;1.70;;;17.20;99.90;;;;;;5071503;28;20398;-63
2022/06/02 13:31:23;;;;;;;2.70;1.50;;;17.50;99.90;;;;;;5070419;28;20753;-62
2022/06/02 13:34:46;;;;;;;5.28;1.70;;;17.80;99.90;;;;;;5072242;28;20875;-63
2022/06/02 13:37:26;;;;;;;5.55;1.60;;;17.90;99.90;;;;;;4984092;28;20391;-62
2022/06/02 13:40:13;;;;;;;4.07;1.35;;;17.80;99.90;;;;;;4985389;28;20707;-62
2022/06/02 13:42:44;;;;;;;6.72;1.50;;;17.70;99.90;;;;;;5071324;28;20661;-62
2022/06/02 13:45:32;;;;;;;6.45;1.52;;;17.30;99.90;;;;;;5069776;28;20382;-63
2022/06/02 13:48:09;;;;;;;4.43;1.57;;;17.30;99.90;;;;;;5068745;28;20543;-63
2022/06/02 13:50:53;;;;;;;4.03;1.45;;;17.50;99.90;;;;;;5067831;28;21299;-62
2022/06/02 13:53:36;;;;;;;4.20;1.50;;;17.70;99.90;;;;;;5067359;28;20374;-62
2022/06/02 13:59:09;;;;;;;4.23;1.53;;;18.20;99.90;;;;;;5090823;28;20446;-62
2022/06/02 14:01:53;;;;;;;4.07;1.30;;;17.90;99.90;;;;;;5069266;28;20395;-62
2022/06/02 14:04:41;;;;;;;5.43;1.75;;;17.60;99.90;;;;;;5050831;28;20395;-62
2022/06/02 14:07:35;;;;;;;3.35;1.20;;;17.50;99.90;;;;;;5066932;28;20440;-62
2022/06/02 14:10:25;;;;;;;3.30;1.40;;;17.70;99.90;;;;;;5068642;28;20376;-62
2022/06/02 14:12:58;;;;;;;3.95;1.40;;;18.40;99.90;;;;;;5050776;28;20387;-62
2022/06/02 14:15:47;;;;;;;4.97;1.47;;;18.60;99.90;;;;;;5049086;28;20390;-62
2022/06/02 14:18:36;;;;;;;3.92;1.58;;;19.00;99.90;;;;;;5049118;28;20391;-62
2022/06/02 14:21:23;;;;;;;4.82;1.77;;;19.10;99.90;;;;;;5051168;28;20807;-62
2022/06/02 14:24:13;;;;;;;4.50;1.65;;;18.90;99.90;;;;;;5051792;28;20407;-62
2022/06/02 14:27:11;;;;;;;4.10;1.45;;;19.10;99.90;;;;;;5052010;28;20410;-62
2022/06/02 14:29:44;;;;;;;4.40;1.50;;;19.10;99.90;;;;;;5053035;28;20395;-62
2022/06/02 14:32:19;;;;;;;5.53;1.58;;;19.00;99.90;;;;;;5053585;28;20380;-62
2022/06/02 14:35:22;;;;;;;3.78;1.30;;;19.10;99.90;;;;;;5051668;28;20537;-62
2022/06/02 14:38:31;;;;;;;3.80;1.30;;;19.40;99.90;;;;;;5051568;28;20380;-63
2022/06/02 14:41:22;;;;;;;4.90;1.55;;;19.80;99.90;;;;;;4963686;28;20389;-60
2022/06/02 14:44:39;;;;;;;4.70;1.50;;;19.90;99.90;;;;;;5051206;28;20387;-60
2022/06/02 14:47:13;;;;;;;2.28;1.10;;;20.20;99.90;;;;;;5008205;28;20558;-59
2022/06/02 14:49:45;;;;;;;3.17;1.35;;;20.40;99.90;;;;;;5066151;28;20460;-60
2022/06/02 14:52:23;;;;;;;3.58;1.35;;;20.30;99.90;;;;;;5049043;28;20457;-61
2022/06/02 14:55:13;;;;;;;3.00;1.30;;;20.20;99.90;;;;;;5048782;28;20444;-61
2022/06/02 14:57:41;;;;;;;4.43;1.50;;;20.30;99.90;;;;;;5047167;28;20395;-61
2022/06/02 15:00:38;;;;;;;3.65;1.45;;;20.30;99.90;;;;;;5049528;28;20384;-60
2022/06/02 15:03:16;;;;;;;4.10;1.23;;;20.10;99.90;;;;;;5060070;28;20494;-60
2022/06/02 15:06:15;;;;;;;5.43;1.45;;;20.00;99.90;;;;;;5088487;28;20378;-60
2022/06/02 15:09:08;;;;;;;5.00;1.35;;;19.50;99.90;;;;;;5064959;28;20514;-60
2022/06/02 15:12:05;;;;;;;4.70;1.65;;;19.20;99.90;;;;;;5065196;28;20790;-60
2022/06/02 15:14:51;;;;;;;3.40;1.38;;;18.90;99.90;;;;;;5065902;28;20386;-60
2022/06/02 15:17:48;;;;;;;2.43;1.20;;;19.10;99.90;;;;;;5082584;28;20727;-60
2022/06/02 15:20:17;;;;;;;6.82;1.58;;;19.50;99.90;;;;;;5060696;28;20854;-60
2022/06/02 15:23:03;;;;;;;3.65;1.20;;;19.60;99.90;;;;;;5060262;28;20386;-60
2022/06/02 15:25:40;;;;;;;3.60;1.30;;;19.80;99.90;;;;;;5060987;28;20443;-60
2022/06/02 15:28:40;;;;;;;4.00;1.48;;;20.10;99.90;;;;;;5083677;28;20406;-59
2022/06/02 15:31:16;;;;;;;4.32;1.38;;;20.40;99.90;;;;;;5064919;28;20899;-60
2022/06/02 15:34:09;;;;;;;4.18;1.50;;;20.50;99.90;;;;;;5081434;28;20645;-60